createdAt,value
2023-04-28T00:02:02.729Z,98511.69
2023-04-28T00:04:29.877Z,98501.38
2023-04-28T00:06:56.705Z,98502.34
2023-04-28T00:09:23.337Z,98498.84
2023-04-28T00:11:49.960Z,98493.47
2023-04-28T00:14:16.886Z,98487.53
2023-04-28T00:16:43.875Z,98490.41
2023-04-28T00:19:10.745Z,98492.38
2023-04-28T00:21:37.417Z,98489.84
2023-04-28T00:24:04.062Z,98482.88
2023-04-28T00:26:30.703Z,98478.59
2023-04-28T00:28:57.180Z,98485.59
2023-04-28T00:31:23.840Z,98475.19
2023-04-28T00:33:50.512Z,98472.66
2023-04-28T00:36:17.175Z,98472.75
2023-04-28T00:38:43.739Z,98474.56
2023-04-28T00:41:11.551Z,98465.13
2023-04-28T00:43:48.116Z,98459.03
2023-04-28T00:46:41.566Z,98468.63
2023-04-28T00:49:08.212Z,98471.22
2023-04-28T00:51:34.876Z,98449.50
2023-04-28T00:54:02.061Z,98441.72
2023-04-28T00:56:31.291Z,98444.25
2023-04-28T00:58:58.642Z,98442.50
2023-04-28T01:01:25.628Z,98437.28
2023-04-28T01:03:52.702Z,98440.69
2023-04-28T01:06:20.477Z,98448.53
2023-04-28T01:08:50.106Z,98431.19
2023-04-28T01:11:17.329Z,98435.50
2023-04-28T01:13:43.882Z,98429.44
2023-04-28T01:16:11.295Z,98425.00
2023-04-28T01:18:38.693Z,98426.81
2023-04-28T01:21:05.712Z,98432.06
2023-04-28T01:23:32.301Z,98417.28
2023-04-28T01:25:58.927Z,98423.34
2023-04-28T01:28:25.853Z,98417.25
2023-04-28T01:30:52.515Z,98404.19
2023-04-28T01:33:19.165Z,98407.66
2023-04-28T01:35:45.716Z,98399.91
2023-04-28T01:38:13.088Z,98404.28
2023-04-28T01:40:39.615Z,98414.75
2023-04-28T01:43:07.095Z,98413.16
2023-04-28T01:45:33.893Z,98409.66
2023-04-28T01:48:00.790Z,98398.41
2023-04-28T01:50:27.433Z,98389.72
2023-04-28T01:52:54.008Z,98394.00
2023-04-28T01:55:20.694Z,98397.47
2023-04-28T01:57:47.254Z,98402.69
2023-04-28T02:00:14.029Z,98397.47
2023-04-28T02:02:41.374Z,98399.22
2023-04-28T02:05:08.232Z,98387.03
2023-04-28T02:07:34.894Z,98385.22
2023-04-28T02:10:01.525Z,98381.72
2023-04-28T02:12:28.053Z,98373.00
2023-04-28T02:14:54.878Z,98374.78
2023-04-28T02:17:21.623Z,98376.50
2023-04-28T02:19:48.262Z,98374.78
2023-04-28T02:22:14.892Z,98374.78
2023-04-28T02:24:41.600Z,98373.03
2023-04-28T02:27:08.578Z,98373.06
2023-04-28T02:29:35.132Z,98367.81
2023-04-28T02:32:01.713Z,98354.75
2023-04-28T02:34:28.328Z,98348.63
2023-04-28T02:36:54.930Z,98345.09
2023-04-28T02:39:22.767Z,98346.84
2023-04-28T02:41:49.421Z,98355.59
2023-04-28T02:44:16.236Z,98354.75
2023-04-28T02:46:43.133Z,98355.59
2023-04-28T02:49:09.673Z,98357.31
2023-04-28T02:51:36.344Z,98348.53
2023-04-28T02:54:03.095Z,98348.47
2023-04-28T02:56:33.200Z,98338.97
2023-04-28T02:58:59.859Z,98339.81
2023-04-28T03:01:27.008Z,98347.66
2023-04-28T03:03:53.776Z,98335.50
2023-04-28T03:06:20.492Z,98325.06
2023-04-28T03:08:47.351Z,98329.41
2023-04-28T03:11:13.914Z,98327.66
2023-04-28T03:13:40.650Z,98321.44
2023-04-28T03:16:08.174Z,98308.38
2023-04-28T03:18:34.899Z,98294.34
2023-04-28T03:21:01.822Z,98297.75
2023-04-28T03:23:28.570Z,98290.72
2023-04-28T03:25:55.127Z,98290.72
2023-04-28T03:28:22.123Z,98294.22
2023-04-28T03:30:48.755Z,98290.72
2023-04-28T03:33:15.524Z,98288.94
2023-04-28T03:35:42.117Z,98290.78
2023-04-28T03:38:08.691Z,98295.19
2023-04-28T03:40:35.634Z,98286.50
2023-04-28T03:43:03.962Z,98292.50
2023-04-28T03:45:31.466Z,98282.06
2023-04-28T03:47:58.262Z,98277.72
2023-04-28T03:50:26.150Z,98269.88
2023-04-28T03:52:53.394Z,98273.31
2023-04-28T03:55:20.071Z,98270.75
2023-04-28T03:57:47.065Z,98263.78
2023-04-28T04:00:14.226Z,98274.31
2023-04-28T04:02:41.004Z,98269.09
2023-04-28T04:05:08.242Z,98275.22
2023-04-28T04:07:35.052Z,98269.16
2023-04-28T04:10:03.920Z,98253.50
2023-04-28T04:12:31.149Z,98251.69
2023-04-28T04:14:57.859Z,98256.78
2023-04-28T04:17:24.559Z,98251.63
2023-04-28T04:19:51.265Z,98245.47
2023-04-28T04:22:17.861Z,98255.84
2023-04-28T04:24:44.571Z,98252.34
2023-04-28T04:27:11.487Z,98250.81
2023-04-28T04:29:38.152Z,98244.53
2023-04-28T04:32:05.066Z,98252.47
2023-04-28T04:34:31.901Z,98246.34
2023-04-28T04:36:58.563Z,98258.50
2023-04-28T04:39:25.235Z,98252.34
2023-04-28T04:41:51.791Z,98253.28
2023-04-28T04:44:18.775Z,98250.63
2023-04-28T04:46:47.351Z,98242.63
2023-04-28T04:49:13.949Z,98233.97
2023-04-28T04:51:40.580Z,98233.84
2023-04-28T04:54:07.425Z,98230.31
2023-04-28T04:56:34.108Z,98229.44
2023-04-28T04:59:01.025Z,98233.81
2023-04-28T05:01:27.605Z,98236.44
2023-04-28T05:03:54.479Z,98235.56
2023-04-28T05:06:21.564Z,98231.22
2023-04-28T05:08:48.392Z,98229.38
2023-04-28T05:11:15.904Z,98225.78
2023-04-28T05:13:42.636Z,98225.69
2023-04-28T05:16:09.385Z,98217.00
2023-04-28T05:18:36.147Z,98213.59
2023-04-28T05:21:02.924Z,98214.47
2023-04-28T05:23:29.538Z,98216.13
2023-04-28T05:25:56.420Z,98215.22
2023-04-28T05:28:23.435Z,98230.78
2023-04-28T05:30:50.020Z,98232.50
2023-04-28T05:33:16.700Z,98224.75
2023-04-28T05:35:43.335Z,98216.88
2023-04-28T05:38:10.126Z,98223.75
2023-04-28T05:40:36.810Z,98214.94
2023-04-28T05:43:03.513Z,98218.38
2023-04-28T05:45:30.730Z,98220.06
2023-04-28T05:47:57.359Z,98219.97
2023-04-28T05:50:24.055Z,98224.25
2023-04-28T05:52:50.830Z,98224.94
2023-04-28T05:55:17.550Z,98231.84
2023-04-28T05:57:52.461Z,98233.47
2023-04-28T06:00:20.194Z,98235.69
2023-04-28T06:02:46.929Z,98222.56
2023-04-28T06:05:13.941Z,98226.22
2023-04-28T06:07:40.847Z,98229.56
2023-04-28T06:10:07.896Z,98234.69
2023-04-28T06:12:34.636Z,98231.16
2023-04-28T06:15:01.409Z,98234.50
2023-04-28T06:17:28.255Z,98232.69
2023-04-28T06:19:55.882Z,98231.03
2023-04-28T06:22:22.693Z,98239.63
2023-04-28T06:24:49.680Z,98234.38
2023-04-28T06:27:16.425Z,98235.94
2023-04-28T06:29:43.045Z,98232.88
2023-04-28T06:32:09.875Z,98225.69
2023-04-28T06:34:37.673Z,98229.16
2023-04-28T06:37:04.511Z,98225.53
2023-04-28T06:39:31.091Z,98224.75
2023-04-28T06:41:57.952Z,98222.63
2023-04-28T06:44:28.046Z,98215.34
2023-04-28T06:46:54.748Z,98221.28
2023-04-28T06:49:21.514Z,98211.44
2023-04-28T06:51:48.177Z,98220.78
2023-04-28T06:54:15.223Z,98214.47
2023-04-28T06:56:42.035Z,98215.50
2023-04-28T06:59:08.589Z,98205.00
2023-04-28T07:01:35.269Z,98199.88
2023-04-28T07:04:02.031Z,98191.84
2023-04-28T07:06:29.905Z,98191.91
2023-04-28T07:08:56.656Z,98186.69
2023-04-28T07:11:23.558Z,98187.72
2023-04-28T07:13:51.756Z,98188.91
2023-04-28T07:16:19.377Z,98181.78
2023-04-28T07:18:46.306Z,98186.22
2023-04-28T07:21:13.285Z,98185.56
2023-04-28T07:23:40.992Z,98183.16
2023-04-28T07:26:08.287Z,98171.59
2023-04-28T07:28:35.158Z,98170.59
2023-04-28T07:31:02.131Z,98168.06
2023-04-28T07:33:28.792Z,98176.53
2023-04-28T07:35:55.637Z,98176.66
2023-04-28T07:38:22.448Z,98191.91
2023-04-28T07:40:49.436Z,98193.75
2023-04-28T07:43:16.098Z,98189.19
2023-04-28T07:45:45.678Z,98191.53
2023-04-28T07:48:12.645Z,98184.91
2023-04-28T07:50:39.438Z,98189.75
2023-04-28T07:53:06.210Z,98183.34
2023-04-28T07:55:32.918Z,98188.59
2023-04-28T07:57:59.679Z,98186.97
2023-04-28T08:00:26.562Z,98186.88
2023-04-28T08:02:53.414Z,98182.59
2023-04-28T08:05:20.422Z,98181.06
2023-04-28T08:07:47.352Z,98189.19
2023-04-28T08:10:14.007Z,98191.06
2023-04-28T08:12:41.436Z,98196.78
2023-04-28T08:15:09.774Z,98198.50
2023-04-28T08:17:36.641Z,98202.22
2023-04-28T08:20:03.677Z,98205.03
2023-04-28T08:22:30.335Z,98206.19
2023-04-28T08:24:56.979Z,98209.09
2023-04-28T08:27:25.690Z,98200.91
2023-04-28T08:29:52.299Z,98197.81
2023-04-28T08:32:19.160Z,98196.78
2023-04-28T08:34:45.794Z,98184.41
2023-04-28T08:37:12.448Z,98188.06
2023-04-28T08:39:39.118Z,98181.72
2023-04-28T08:42:06.059Z,98176.31
2023-04-28T08:44:38.919Z,98179.69
2023-04-28T08:47:14.232Z,98183.28
2023-04-28T08:49:41.857Z,98185.72
2023-04-28T08:52:13.097Z,98190.72
2023-04-28T08:54:41.380Z,98196.78
2023-04-28T08:57:11.971Z,98184.31
2023-04-28T08:59:40.485Z,98186.81
2023-04-28T09:02:10.584Z,98162.22
2023-04-28T09:04:38.260Z,98167.56
2023-04-28T09:07:11.224Z,98164.25
2023-04-28T09:09:39.212Z,98156.31
2023-04-28T09:12:06.403Z,98151.94
2023-04-28T09:14:34.914Z,98158.25
2023-04-28T09:17:14.673Z,98147.25
2023-04-28T09:19:44.870Z,98140.28
2023-04-28T09:22:26.114Z,98144.97
2023-04-28T09:24:55.396Z,98146.09
2023-04-28T09:27:28.405Z,98160.38
2023-04-28T09:29:55.388Z,98157.00
2023-04-28T09:32:24.093Z,98149.50
2023-04-28T09:34:54.000Z,98143.31
2023-04-28T09:37:22.870Z,98138.19
2023-04-28T09:39:51.780Z,98129.84
2023-04-28T09:42:36.675Z,98124.22
2023-04-28T09:45:12.020Z,98115.34
2023-04-28T09:47:46.922Z,98103.28
2023-04-28T09:50:17.233Z,98101.47
2023-04-28T09:52:49.115Z,98100.25
2023-04-28T09:55:17.902Z,98093.78
2023-04-28T09:57:45.756Z,98102.38
2023-04-28T10:00:13.614Z,98103.19
2023-04-28T10:02:43.905Z,98100.56
2023-04-28T10:05:11.697Z,98103.09
2023-04-28T10:07:39.590Z,98094.53
2023-04-28T10:10:07.781Z,98097.22
2023-04-28T10:12:35.319Z,98096.50
2023-04-28T10:15:02.395Z,98087.91
2023-04-28T10:17:29.807Z,98093.38
2023-04-28T10:19:57.372Z,98101.16
2023-04-28T10:23:00.620Z,98098.38
2023-04-28T10:25:34.444Z,98097.16
2023-04-28T10:28:06.190Z,98101.66
2023-04-28T10:30:33.243Z,98098.88
2023-04-28T10:33:12.276Z,98087.38
2023-04-28T10:35:40.731Z,98092.09
2023-04-28T10:38:08.577Z,98080.72
2023-04-28T10:40:37.239Z,98089.72
2023-04-28T10:43:04.846Z,98083.66
2023-04-28T10:45:56.161Z,98078.50
2023-04-28T10:48:49.456Z,98058.34
2023-04-28T10:51:15.922Z,98068.53
2023-04-28T10:53:45.931Z,98063.09
2023-04-28T10:56:16.898Z,98070.88
2023-04-28T10:58:46.369Z,98066.16
2023-04-28T11:01:18.878Z,98067.81
2023-04-28T11:03:54.297Z,98060.88
2023-04-28T11:06:28.446Z,98053.97
2023-04-28T11:09:03.345Z,98063.47
2023-04-28T11:11:31.076Z,98061.63
2023-04-28T11:14:19.454Z,98049.97
2023-04-28T11:17:01.282Z,98053.19
2023-04-28T11:19:34.067Z,98053.63
2023-04-28T11:22:11.649Z,98052.44
2023-04-28T11:24:38.380Z,98060.53
2023-04-28T11:27:05.527Z,98045.19
2023-04-28T11:29:39.612Z,98048.75
2023-04-28T11:32:10.473Z,98051.97
2023-04-28T11:34:37.670Z,98036.50
2023-04-28T11:37:05.995Z,98038.06
2023-04-28T11:39:34.624Z,98037.00
2023-04-28T11:42:09.128Z,98033.13
2023-04-28T11:44:35.951Z,98025.66
2023-04-28T11:47:04.312Z,98020.28
2023-04-28T11:49:41.822Z,98013.94
2023-04-28T11:52:09.385Z,98002.09
2023-04-28T11:54:37.545Z,98008.59
2023-04-28T11:57:06.059Z,98005.03
2023-04-28T11:59:34.922Z,98001.22
2023-04-28T12:02:03.598Z,98000.94
2023-04-28T12:04:38.505Z,98001.66
2023-04-28T12:07:13.187Z,97994.91
2023-04-28T12:10:12.881Z,97991.66
2023-04-28T12:12:51.174Z,98003.31
2023-04-28T12:16:06.055Z,98002.94
2023-04-28T12:18:12.775Z,98002.25
2023-04-28T12:20:39.803Z,98001.22
2023-04-28T12:23:07.582Z,98002.09
2023-04-28T12:25:43.735Z,98009.53
2023-04-28T12:28:10.924Z,98002.41
2023-04-28T12:30:42.257Z,97997.00
2023-04-28T12:33:26.308Z,97987.72
2023-04-28T12:35:57.150Z,97990.22
2023-04-28T12:38:24.843Z,97988.25
2023-04-28T12:40:52.018Z,97981.72
2023-04-28T12:43:19.133Z,97977.53
2023-04-28T12:45:45.857Z,97977.53
2023-04-28T12:48:12.569Z,97973.78
2023-04-28T12:50:39.362Z,97972.53
2023-04-28T12:53:06.453Z,97970.06
2023-04-28T12:55:33.586Z,97971.59
2023-04-28T12:58:00.216Z,97963.66
2023-04-28T13:00:27.035Z,97958.94
2023-04-28T13:02:53.804Z,97954.78
2023-04-28T13:05:20.675Z,97952.69
2023-04-28T13:07:47.929Z,97949.19
2023-04-28T13:10:14.696Z,97947.94
2023-04-28T13:12:41.875Z,97950.44
2023-04-28T13:15:09.141Z,97944.38
2023-04-28T13:17:35.829Z,97946.59
2023-04-28T13:20:04.071Z,97945.91
2023-04-28T13:22:30.788Z,97944.19
2023-04-28T13:24:57.756Z,97947.78
2023-04-28T13:27:24.531Z,97955.34
2023-04-28T13:29:51.373Z,97937.94
2023-04-28T13:32:18.280Z,97941.84
2023-04-28T13:34:45.361Z,97938.13
2023-04-28T13:37:12.495Z,97952.00
2023-04-28T13:39:39.129Z,97942.47
2023-04-28T13:42:07.073Z,97937.94
2023-04-28T13:44:33.818Z,97937.41
2023-04-28T13:47:00.959Z,97935.69
2023-04-28T13:49:27.617Z,97932.66
2023-04-28T13:51:54.348Z,97937.50
2023-04-28T13:54:21.538Z,97937.38
2023-04-28T13:56:48.382Z,97928.63
2023-04-28T13:59:15.281Z,97936.72
2023-04-28T14:01:42.362Z,97940.31
2023-04-28T14:04:09.133Z,97933.00
2023-04-28T14:06:36.082Z,97928.31
2023-04-28T14:09:03.687Z,97929.25
2023-04-28T14:11:30.330Z,97932.13
2023-04-28T14:13:57.545Z,97925.38
2023-04-28T14:16:24.776Z,97920.97
2023-04-28T14:18:51.909Z,97918.13
2023-04-28T14:21:18.656Z,97912.44
2023-04-28T14:23:45.280Z,97920.53
2023-04-28T14:26:12.148Z,97912.25
2023-04-28T14:28:38.926Z,97917.34
2023-04-28T14:31:09.296Z,97921.03
2023-04-28T14:33:36.936Z,97913.34
2023-04-28T14:36:04.232Z,97907.44
2023-04-28T14:38:31.306Z,97913.00
2023-04-28T14:40:58.252Z,97913.81
2023-04-28T14:43:25.177Z,97912.25
2023-04-28T14:45:52.047Z,97918.53
2023-04-28T14:48:19.177Z,97912.72
2023-04-28T14:50:46.278Z,97904.19
2023-04-28T14:53:12.956Z,97913.66
2023-04-28T14:55:39.557Z,97903.31
2023-04-28T14:58:06.135Z,97900.13
2023-04-28T15:00:32.725Z,97896.06
2023-04-28T15:02:59.620Z,97901.56
2023-04-28T15:05:26.444Z,97893.03
2023-04-28T15:07:53.015Z,97895.88
2023-04-28T15:10:19.705Z,97894.84
2023-04-28T15:12:48.330Z,97895.63
2023-04-28T15:15:15.090Z,97892.97
2023-04-28T15:17:41.880Z,97898.28
2023-04-28T15:20:09.226Z,97895.63
2023-04-28T15:22:36.813Z,97896.41
2023-04-28T15:25:03.558Z,97896.41
2023-04-28T15:27:30.160Z,97891.09
2023-04-28T15:29:56.995Z,97892.97
2023-04-28T15:32:23.982Z,97884.09
2023-04-28T15:34:51.056Z,97890.81
2023-04-28T15:37:52.187Z,97888.00
2023-04-28T15:40:19.881Z,97896.00
2023-04-28T15:42:49.599Z,97889.88
2023-04-28T15:45:16.761Z,97894.94
2023-04-28T15:47:44.358Z,97900.28
2023-04-28T15:50:11.664Z,97895.94
2023-04-28T15:52:46.167Z,97901.59
2023-04-28T15:55:17.413Z,97889.88
2023-04-28T15:57:44.661Z,97898.63
2023-04-28T16:00:12.078Z,97897.78
2023-04-28T16:02:39.137Z,97900.88
2023-04-28T16:05:06.449Z,97901.66
2023-04-28T16:07:39.032Z,97899.94
2023-04-28T16:10:08.306Z,97903.53
2023-04-28T16:12:35.472Z,97903.00
2023-04-28T16:15:02.391Z,97902.91
2023-04-28T16:17:31.688Z,97906.78
2023-04-28T16:19:58.329Z,97907.88
2023-04-28T16:22:25.641Z,97904.22
2023-04-28T16:24:53.493Z,97905.44
2023-04-28T16:27:20.217Z,97905.53
2023-04-28T16:29:46.773Z,97910.75
2023-04-28T16:32:13.569Z,97910.00
2023-04-28T16:34:40.354Z,97909.06
2023-04-28T16:37:11.810Z,97912.09
2023-04-28T16:39:38.524Z,97908.34
2023-04-28T16:42:05.562Z,97912.09
2023-04-28T16:44:32.424Z,97906.09
2023-04-28T16:46:59.571Z,97909.53
2023-04-28T16:49:26.414Z,97900.09
2023-04-28T16:52:01.466Z,97897.25
2023-04-28T16:54:29.632Z,97888.38
2023-04-28T16:56:56.890Z,97896.78
2023-04-28T16:59:26.506Z,97899.44
2023-04-28T17:01:53.220Z,97888.94
2023-04-28T17:04:20.253Z,97897.06
2023-04-28T17:06:47.541Z,97899.66
2023-04-28T17:09:14.150Z,97892.88
2023-04-28T17:11:40.837Z,97896.66
2023-04-28T17:14:07.569Z,97892.53
2023-04-28T17:16:34.797Z,97897.19
2023-04-28T17:19:02.259Z,97895.41
2023-04-28T17:21:29.382Z,97891.75
2023-04-28T17:23:59.774Z,97890.81
2023-04-28T17:26:27.936Z,97897.25
2023-04-28T17:28:55.805Z,97898.09
2023-04-28T17:31:23.321Z,97906.09
2023-04-28T17:33:54.251Z,97901.81
2023-04-28T17:36:23.282Z,97893.91
2023-04-28T17:38:53.259Z,97897.97
2023-04-28T17:41:23.024Z,97902.59
2023-04-28T17:43:52.778Z,97895.88
2023-04-28T17:46:19.693Z,97896.69
2023-04-28T17:48:46.424Z,97896.75
2023-04-28T17:51:13.084Z,97896.97
2023-04-28T17:53:40.273Z,97893.69
2023-04-28T17:56:07.046Z,97887.53
2023-04-28T17:58:33.912Z,97887.53
2023-04-28T18:01:05.344Z,97889.63
2023-04-28T18:03:34.902Z,97886.13
2023-04-28T18:06:01.768Z,97869.47
2023-04-28T18:08:28.496Z,97873.78
2023-04-28T18:10:55.969Z,97872.44
2023-04-28T18:13:22.706Z,97882.84
2023-04-28T18:15:49.467Z,97872.91
2023-04-28T18:18:16.973Z,97863.69
2023-04-28T18:20:47.457Z,97875.13
2023-04-28T18:23:14.077Z,97881.09
2023-04-28T18:25:40.792Z,97886.16
2023-04-28T18:28:08.325Z,97880.34
2023-04-28T18:30:38.079Z,97879.22
2023-04-28T18:33:09.092Z,97878.22
2023-04-28T18:35:37.131Z,97873.28
2023-04-28T18:38:05.183Z,97880.66
2023-04-28T18:40:33.373Z,97881.31
2023-04-28T18:43:02.150Z,97874.31
2023-04-28T18:45:34.460Z,97867.69
2023-04-28T18:48:05.597Z,97884.44
2023-04-28T18:50:33.112Z,97884.19
2023-04-28T18:53:04.359Z,97886.88
2023-04-28T18:55:33.726Z,97886.44
2023-04-28T18:58:02.159Z,97880.50
2023-04-28T19:00:29.051Z,97885.09
2023-04-28T19:02:56.032Z,97881.84
2023-04-28T19:05:22.955Z,97884.66
2023-04-28T19:07:49.667Z,97892.88
2023-04-28T19:10:16.325Z,97891.41
2023-04-28T19:12:42.859Z,97894.47
2023-04-28T19:15:09.624Z,97894.34
2023-04-28T19:17:36.289Z,97897.03
2023-04-28T19:20:04.246Z,97888.97
2023-04-28T19:22:38.335Z,97890.78
2023-04-28T19:25:06.851Z,97897.78
2023-04-28T19:27:35.527Z,97903.84
2023-04-28T19:30:04.180Z,97903.16
2023-04-28T19:32:30.977Z,97896.41
2023-04-28T19:34:57.737Z,97900.03
2023-04-28T19:37:25.479Z,97901.81
2023-04-28T19:39:52.430Z,97892.88
2023-04-28T19:42:19.415Z,97895.56
2023-04-28T19:44:47.296Z,97897.56
2023-04-28T19:47:13.899Z,97904.59
2023-04-28T19:49:44.892Z,97911.66
2023-04-28T19:52:12.277Z,97911.78
2023-04-28T19:54:38.857Z,97906.34
2023-04-28T19:57:05.572Z,97905.59
2023-04-28T19:59:32.299Z,97904.63
2023-04-28T20:01:58.923Z,97902.84
2023-04-28T20:04:26.096Z,97909.53
2023-04-28T20:06:53.691Z,97910.81
2023-04-28T20:09:20.210Z,97909.41
2023-04-28T20:11:46.957Z,97913.59
2023-04-28T20:14:13.939Z,97918.38
2023-04-28T20:16:40.480Z,97917.44
2023-04-28T20:19:07.047Z,97910.88
2023-04-28T20:21:35.151Z,97915.91
2023-04-28T20:24:02.208Z,97915.53
2023-04-28T20:26:28.820Z,97910.94
2023-04-28T20:28:57.197Z,97911.72
2023-04-28T20:31:23.786Z,97895.53
2023-04-28T20:33:50.401Z,97886.81
2023-04-28T20:36:16.907Z,97876.00
2023-04-28T20:38:43.646Z,97877.16
2023-04-28T20:41:11.041Z,97878.09
2023-04-28T20:43:38.115Z,97880.63
2023-04-28T20:46:13.386Z,97882.56
2023-04-28T20:48:40.565Z,97872.53
2023-04-28T20:51:07.663Z,97880.25
2023-04-28T20:53:34.304Z,97877.75
2023-04-28T20:56:00.929Z,97873.97
2023-04-28T20:58:28.243Z,97875.84
2023-04-28T21:00:54.821Z,97873.97
2023-04-28T21:03:23.820Z,97881.25
2023-04-28T21:05:50.455Z,97878.28
2023-04-28T21:08:17.255Z,97883.63
2023-04-28T21:10:43.973Z,97883.31
2023-04-28T21:13:10.710Z,97889.47
2023-04-28T21:15:37.975Z,97891.94
2023-04-28T21:18:05.094Z,97893.00
2023-04-28T21:20:31.790Z,97890.78
2023-04-28T21:22:58.469Z,97899.38
2023-04-28T21:25:28.196Z,97908.44
2023-04-28T21:27:55.443Z,97912.78
2023-04-28T21:30:22.516Z,97918.88
2023-04-28T21:32:49.143Z,97926.81
2023-04-28T21:35:16.426Z,97925.84
2023-04-28T21:37:43.283Z,97922.66
2023-04-28T21:40:10.304Z,97927.81
2023-04-28T21:42:37.050Z,97915.69
2023-04-28T21:45:04.047Z,97913.22
2023-04-28T21:47:30.654Z,97916.53
2023-04-28T21:49:57.539Z,97913.28
2023-04-28T21:52:24.055Z,97916.84
2023-04-28T21:54:51.063Z,97907.81
2023-04-28T21:57:17.608Z,97907.72
2023-04-28T21:59:44.209Z,97905.00
2023-04-28T22:02:12.607Z,97901.59
2023-04-28T22:04:39.263Z,97893.63
2023-04-28T22:07:06.543Z,97891.16
2023-04-28T22:09:33.556Z,97883.50
2023-04-28T22:12:00.182Z,97891.66
2023-04-28T22:14:40.298Z,97887.09
2023-04-28T22:17:07.878Z,97881.91
2023-04-28T22:19:34.568Z,97895.00
2023-04-28T22:22:01.173Z,97893.50
2023-04-28T22:24:27.974Z,97891.91
2023-04-28T22:26:55.086Z,97896.47
2023-04-28T22:29:22.030Z,97892.34
2023-04-28T22:31:48.825Z,97901.19
2023-04-28T22:34:16.561Z,97897.25
2023-04-28T22:36:43.122Z,97898.03
2023-04-28T22:39:09.656Z,97891.47
2023-04-28T22:41:36.254Z,97904.63
2023-04-28T22:44:02.860Z,97903.06
2023-04-28T22:46:30.267Z,97900.09
2023-04-28T22:48:57.586Z,97908.56
2023-04-28T22:51:24.133Z,97904.47
2023-04-28T22:53:50.882Z,97906.94
2023-04-28T22:56:17.401Z,97904.69
2023-04-28T22:58:44.675Z,97905.25
2023-04-28T23:01:11.752Z,97906.72
2023-04-28T23:03:38.911Z,97911.44
2023-04-28T23:06:05.790Z,97906.28
2023-04-28T23:08:32.507Z,97906.34
2023-04-28T23:10:59.110Z,97907.03
2023-04-28T23:13:25.736Z,97905.13
2023-04-28T23:15:52.380Z,97912.06
2023-04-28T23:18:19.409Z,97904.59
2023-04-28T23:20:49.303Z,97903.78
2023-04-28T23:23:16.106Z,97908.22
2023-04-28T23:25:45.548Z,97905.06
2023-04-28T23:28:12.461Z,97908.44
2023-04-28T23:30:38.974Z,97903.81
2023-04-28T23:33:05.582Z,97904.50
2023-04-28T23:35:33.185Z,97897.38
2023-04-28T23:37:59.886Z,97893.81
2023-04-28T23:40:27.001Z,97896.59
2023-04-28T23:42:53.605Z,97903.56
2023-04-28T23:45:20.237Z,97900.88
2023-04-28T23:47:47.356Z,97899.22
2023-04-28T23:50:14.040Z,97899.16
2023-04-28T23:52:40.594Z,97897.38
2023-04-28T23:55:11.174Z,97890.84
2023-04-28T23:57:38.592Z,97887.06
